Flight Track Log - Related Links

Times and Time Zones

All times are in EDT time to prevent confusion due to time zone crossing. See the EWG3170 flight status page for this flight to view local times or setup timezone preferences in your user account.


Time Position Orientation Groundspeed Altitude Reporting Facility
EDT Latitude Longitude Course Direction KTS MPH feet Rate Location/Type
Tue 02:27:26 AM 51.2484 6.7759 172° South  Level Estimated
Tue 02:28:26 AM 51.1537 6.7969 172° South  Level Estimated
Tue 02:29:26 AM 51.0589 6.8179 172° South  Level Estimated
Tue 02:30:26 AM 50.9642 6.8387 172° South  Level Estimated
Tue 02:31:26 AM 50.8695 6.8595 172° South  Level Estimated
Tue 02:32:26 AM 50.7747 6.8801 172° South  Level Estimated
Tue 02:33:26 AM 50.6800 6.9008 172° South  Level Estimated
Tue 02:34:26 AM 50.5852 6.9213 172° South  Level Estimated
Tue 02:35:26 AM 50.4904 6.9417 172° South  Level Estimated
Tue 02:36:26 AM 50.3957 6.9620 172° South  Level Estimated
Tue 02:37:26 AM 50.3009 6.9823 172° South  Level Estimated
Tue 02:38:26 AM 50.2061 7.0025 172° South  Level Estimated
Tue 02:39:26 AM 50.1114 7.0226 172° South  Level Estimated
Tue 02:40:26 AM 50.0166 7.0426 172° South  Level Estimated
Tue 02:41:26 AM 49.9218 7.0626 172° South  Level Estimated
Tue 02:42:26 AM 49.8270 7.0825 172° South  Level Estimated
Tue 02:43:26 AM 49.7322 7.1023 172° South  Level Estimated
Tue 02:44:26 AM 49.6375 7.1220 172° South  Level Estimated
Tue 02:45:26 AM 49.5427 7.1416 172° South  Level Estimated
Tue 02:46:26 AM 49.4479 7.1612 172° South  Level Estimated
Tue 02:47:26 AM 49.3531 7.1807 172° South  Level Estimated
Tue 02:48:26 AM 49.2583 7.2001 172° South  Level Estimated
Tue 02:49:26 AM 49.1634 7.2194 172° South  Level Estimated
Tue 02:50:26 AM 49.0686 7.2387 172° South  Level Estimated
Tue 02:51:26 AM 48.9738 7.2579 172° South  Level Estimated
Tue 02:52:26 AM 48.8790 7.2770 172° South  Level Estimated
Tue 02:53:26 AM 48.7842 7.2960 172° South  Level Estimated
Tue 02:54:26 AM 48.6894 7.3150 172° South  Level Estimated
Tue 02:55:26 AM 48.5946 7.3339 173° South  Level Estimated
Tue 02:56:26 AM 48.4997 7.3527 173° South  Level Estimated
Tue 02:57:26 AM 48.4049 7.3715 173° South  Level Estimated
Tue 02:58:26 AM 48.3101 7.3902 173° South  Level Estimated
Tue 02:59:26 AM 48.2152 7.4088 173° South  Level Estimated
Tue 03:00:26 AM 48.1204 7.4273 173° South  Level Estimated
Tue 03:01:26 AM 48.0256 7.4458 173° South  Level Estimated
Tue 03:02:26 AM 47.9307 7.4642 173° South  Level Estimated
Tue 03:03:26 AM 47.8359 7.4826 173° South  Level Estimated
Tue 03:04:26 AM 47.7410 7.5009 173° South  Level Estimated
Tue 03:05:26 AM 47.6461 7.5191 173° South  Level Estimated
Tue 03:06:26 AM 47.5513 7.5372 353° North  Level Estimated
Tue 03:07:26 AM 47.6461 7.5191 173° South  Level Estimated
Tue 03:08:26 AM 47.5513 7.5372 353° North  Level Estimated
Tue 03:09:26 AM 47.6461 7.5191 173° South  Level Estimated
Tue 03:10:26 AM 47.5513 7.5372 353° North  Level Estimated
Tue 03:11:26 AM 47.6461 7.5191 173° South  Level Estimated
Tue 03:12:26 AM 47.5513 7.5372 353° North  Level Estimated
Tue 03:13:26 AM 47.6461 7.5191 353° North  Level Estimated

Login

Don't have an account? Register now (free) for customized features, flight alerts, and more!